Portada
METAR-TAF:

METAR-TAF

Aeroports :

Toamasina, Madagascar

latitud: 18-07S, longitud: 049-24E, altitud: 5 m

Observació

L'informe es va fer fa 1 hora i 5 minuts, a les 22:00 UTC
Vent calma
Temperatura 25°C
Humitat 94%
Pressió 1013 hPa
Visibilitat 10 km o més
Núvols disperses a una alçada de 1700 ft

METAR: FMMT 192200Z 00000KT 9999 SCT017 25/24 Q1013

Hora: 02:05 (23:05 UTC)

Pronòstic

L'informe es va fer fa 6 hores i 5 minuts, a les 17:00 UTC
Pronòstic vàlid del 19 a les 18 UTC al 20 a les 18 UTC
Vent 5 kt amb direcció variable
Visibilitat 10 km o més
Núvols disperses a una alçada de 1700 ft
Probabilitat 30% :
Temporalment
l' 20 a les 00 UTC al 20 a les 08 UTC
Visibilitat: 4000 m
pluja

TAF: FMMT 191700Z 1918/2018 VRB05KT 9999 SCT017 PROB30 TEMPO 2000/2008 4000 RA

Observacions i pronòstics meteorològics de més de 4000 aeroports (METAR i TAF).

Les estacions disponibles són els punts grocs i vermells al mapa.

Posi el ratolí al punt desitjat per veure el nom de l'estació.

Feu clic per veure les observacions i els pronòstics meteorològics.

Per canviar el mapa: feu clic els botons verds amb una creu de color negre per apropar; al botó verd amb un guió per allunyar la imatge; o en les fletxes verdes per a mapes adjacents.


METAR-TAF: